createdAt,value
2018-08-16T00:00:59.101Z,12.68
2018-08-16T00:03:27.166Z,13.83
2018-08-16T00:05:55.195Z,12.90
2018-08-16T00:08:23.236Z,13.30
2018-08-16T00:10:51.280Z,11.88
2018-08-16T00:13:19.325Z,12.33
2018-08-16T00:15:47.343Z,12.23
2018-08-16T00:18:15.375Z,12.70
2018-08-16T00:20:43.448Z,12.50
2018-08-16T00:23:11.489Z,12.85
2018-08-16T00:25:39.499Z,13.08
2018-08-16T00:28:07.536Z,13.40
2018-08-16T00:30:35.584Z,12.60
2018-08-16T00:33:03.624Z,12.70
2018-08-16T00:35:31.659Z,12.85
2018-08-16T00:37:59.702Z,12.40
2018-08-16T00:40:27.707Z,12.70
2018-08-16T00:42:55.739Z,13.20
2018-08-16T00:45:23.776Z,13.10
2018-08-16T00:47:51.808Z,12.65
2018-08-16T00:50:19.818Z,13.38
2018-08-16T00:52:47.841Z,13.05
2018-08-16T00:55:15.864Z,12.47
2018-08-16T00:57:43.895Z,12.70
2018-08-16T01:00:13.860Z,13.03
2018-08-16T01:02:41.908Z,13.60
2018-08-16T01:05:10.079Z,14.75
2018-08-16T01:07:38.140Z,12.57
2018-08-16T01:10:08.237Z,14.30
2018-08-16T01:12:36.288Z,13.60
2018-08-16T01:15:06.000Z,12.90
2018-08-16T01:17:34.024Z,13.62
2018-08-16T01:20:02.036Z,14.15
2018-08-16T01:22:30.067Z,12.53
2018-08-16T01:24:58.112Z,14.53
2018-08-16T01:27:26.157Z,14.45
2018-08-16T01:29:54.180Z,14.13
2018-08-16T01:32:22.203Z,13.80
2018-08-16T01:34:50.233Z,13.97
2018-08-16T01:37:18.259Z,15.37
2018-08-16T01:39:46.338Z,13.88
2018-08-16T01:42:14.344Z,14.75
2018-08-16T01:44:42.367Z,15.00
2018-08-16T01:47:10.396Z,14.13
2018-08-16T01:49:38.954Z,15.10
2018-08-16T01:52:07.072Z,14.73
2018-08-16T01:54:35.115Z,14.75
2018-08-16T01:57:03.672Z,14.93
2018-08-16T01:59:31.692Z,14.78
2018-08-16T02:01:59.743Z,15.55
2018-08-16T02:04:27.779Z,15.32
2018-08-16T02:06:55.830Z,16.00
2018-08-16T02:09:24.349Z,15.40
2018-08-16T02:11:52.711Z,17.35
2018-08-16T02:14:21.007Z,17.50
2018-08-16T02:16:49.716Z,16.65
2018-08-16T02:19:17.760Z,16.30
2018-08-16T02:21:45.805Z,17.80
2018-08-16T02:24:13.819Z,17.90
2018-08-16T02:26:41.855Z,17.05
2018-08-16T02:29:09.883Z,15.85
2018-08-16T02:31:37.928Z,17.45
2018-08-16T02:34:06.129Z,16.50
2018-08-16T02:36:34.155Z,16.77
2018-08-16T02:39:02.173Z,16.70
2018-08-16T02:41:30.193Z,17.35
2018-08-16T02:43:58.204Z,16.62
2018-08-16T02:46:26.252Z,16.77
2018-08-16T02:48:54.315Z,16.40
2018-08-16T02:51:22.344Z,18.62
2018-08-16T02:53:50.360Z,17.45
2018-08-16T02:56:18.368Z,18.13
2018-08-16T02:58:46.408Z,19.75
2018-08-16T03:01:14.416Z,18.85
2018-08-16T03:03:42.440Z,18.62
2018-08-16T03:06:10.523Z,18.57
2018-08-16T03:08:38.527Z,19.42
2018-08-16T03:11:07.024Z,20.17
2018-08-16T03:13:35.040Z,19.60
2018-08-16T03:16:03.092Z,18.70
2018-08-16T03:18:31.127Z,19.65
2018-08-16T03:20:59.164Z,20.02
2018-08-16T03:23:27.237Z,21.73
2018-08-16T03:25:55.284Z,18.67
2018-08-16T03:28:23.300Z,18.35
2018-08-16T03:30:51.342Z,19.70
2018-08-16T03:33:19.379Z,18.60
2018-08-16T03:35:47.413Z,20.60
2018-08-16T03:38:15.472Z,20.23
2018-08-16T03:40:43.513Z,20.70
2018-08-16T03:43:11.528Z,19.80
2018-08-16T03:45:39.556Z,19.32
2018-08-16T03:48:07.663Z,19.30
2018-08-16T03:50:35.663Z,19.85
2018-08-16T03:53:03.711Z,19.60
2018-08-16T03:55:31.741Z,19.25
2018-08-16T03:57:59.781Z,19.48
2018-08-16T04:00:27.835Z,20.10
2018-08-16T04:02:55.887Z,20.50
2018-08-16T04:05:23.968Z,19.50
2018-08-16T04:07:51.992Z,19.32
2018-08-16T04:10:20.028Z,19.50
2018-08-16T04:12:48.115Z,19.45
2018-08-16T04:15:16.140Z,19.12
2018-08-16T04:17:44.212Z,20.08
2018-08-16T04:20:12.249Z,19.52
2018-08-16T04:22:40.283Z,19.85
2018-08-16T04:25:08.345Z,19.97
2018-08-16T04:27:36.392Z,20.05
2018-08-16T04:30:05.331Z,19.73
2018-08-16T04:32:33.356Z,20.08
2018-08-16T04:35:01.421Z,20.55
2018-08-16T04:37:29.476Z,20.35
2018-08-16T04:39:57.508Z,21.35
2018-08-16T04:42:25.548Z,21.87
2018-08-16T04:44:53.577Z,20.75
2018-08-16T04:47:21.588Z,21.17
2018-08-16T04:49:49.627Z,22.87
2018-08-16T04:52:17.698Z,21.00
2018-08-16T04:54:45.755Z,21.37
2018-08-16T04:57:13.775Z,20.10
2018-08-16T04:59:41.805Z,19.83
2018-08-16T05:02:09.840Z,19.45
2018-08-16T05:04:37.883Z,19.10
2018-08-16T05:07:05.923Z,19.10
2018-08-16T05:09:33.970Z,19.50
2018-08-16T05:12:02.020Z,19.30
2018-08-16T05:14:30.049Z,19.60
2018-08-16T05:16:58.076Z,18.50
2018-08-16T05:19:26.106Z,22.62
2018-08-16T05:21:54.155Z,19.92
2018-08-16T05:24:22.172Z,19.48
2018-08-16T05:26:50.274Z,18.98
2018-08-16T05:29:18.291Z,20.68
2018-08-16T05:31:46.357Z,19.55
2018-08-16T05:34:14.336Z,19.50
2018-08-16T05:36:42.384Z,18.30
2018-08-16T05:39:11.811Z,18.05
2018-08-16T05:41:40.064Z,17.95
2018-08-16T05:44:08.324Z,17.50
2018-08-16T05:46:36.373Z,17.27
2018-08-16T05:49:04.459Z,18.50
2018-08-16T05:51:32.490Z,18.65
2018-08-16T05:54:00.526Z,18.32
2018-08-16T05:56:28.581Z,19.20
2018-08-16T05:58:56.580Z,17.75
2018-08-16T06:01:24.626Z,19.27
2018-08-16T06:03:52.753Z,18.70
2018-08-16T06:06:20.793Z,17.98
2018-08-16T06:08:48.808Z,18.98
2018-08-16T06:11:16.868Z,19.10
2018-08-16T06:13:44.921Z,18.80
2018-08-16T06:16:12.956Z,18.12
2018-08-16T06:18:41.008Z,17.90
2018-08-16T06:21:09.044Z,18.57
2018-08-16T06:23:37.129Z,18.20
2018-08-16T06:26:05.157Z,18.50
2018-08-16T06:28:33.280Z,18.10
2018-08-16T06:31:01.336Z,18.48
2018-08-16T06:33:29.536Z,21.40
2018-08-16T06:35:57.553Z,18.42
2018-08-16T06:38:25.592Z,18.13
2018-08-16T06:40:53.726Z,18.27
2018-08-16T06:43:21.768Z,18.45
2018-08-16T06:45:49.861Z,18.52
2018-08-16T06:48:17.927Z,17.30
2018-08-16T06:50:45.964Z,17.55
2018-08-16T06:53:14.008Z,17.62
2018-08-16T06:55:42.073Z,18.27
2018-08-16T06:58:10.142Z,17.30
2018-08-16T07:00:38.173Z,17.10
2018-08-16T07:03:06.217Z,15.90
2018-08-16T07:05:34.243Z,17.45
2018-08-16T07:08:02.302Z,18.17
2018-08-16T07:10:30.307Z,17.17
2018-08-16T07:12:58.355Z,16.73
2018-08-16T07:15:26.440Z,16.95
2018-08-16T07:17:54.515Z,16.77
2018-08-16T07:20:22.548Z,16.62
2018-08-16T07:22:50.605Z,16.48
2018-08-16T07:25:18.632Z,15.25
2018-08-16T07:27:46.672Z,15.53
2018-08-16T07:30:14.729Z,14.60
2018-08-16T07:32:42.812Z,16.45
2018-08-16T07:35:11.008Z,15.90
2018-08-16T07:37:39.057Z,16.32
2018-08-16T07:40:07.841Z,15.70
2018-08-16T07:42:35.865Z,17.90
2018-08-16T07:45:04.576Z,17.10
2018-08-16T07:47:32.597Z,16.00
2018-08-16T07:50:00.609Z,16.20
2018-08-16T07:52:28.655Z,17.57
2018-08-16T07:54:56.734Z,17.07
2018-08-16T07:57:24.756Z,18.20
2018-08-16T07:59:52.772Z,17.70
2018-08-16T08:02:20.804Z,18.55
2018-08-16T08:04:48.821Z,16.93
2018-08-16T08:07:16.859Z,19.60
2018-08-16T08:09:44.976Z,17.90
2018-08-16T08:12:12.920Z,18.43
2018-08-16T08:14:40.975Z,19.90
2018-08-16T08:17:09.003Z,20.53
2018-08-16T08:19:37.041Z,19.60
2018-08-16T08:22:05.090Z,19.40
2018-08-16T08:24:33.123Z,20.00
2018-08-16T08:27:01.202Z,19.50
2018-08-16T08:29:29.244Z,19.55
2018-08-16T08:31:57.382Z,20.40
2018-08-16T08:34:25.449Z,18.67
2018-08-16T08:37:05.191Z,19.80
2018-08-16T08:39:33.307Z,21.48
2018-08-16T08:42:01.329Z,20.02
2018-08-16T08:44:29.392Z,20.48
2018-08-16T08:46:57.440Z,20.45
2018-08-16T08:49:25.476Z,17.95
2018-08-16T08:51:54.319Z,18.87
2018-08-16T08:54:42.251Z,19.40
2018-08-16T08:57:21.857Z,18.27
2018-08-16T08:59:49.890Z,17.17
2018-08-16T09:02:17.956Z,16.30
2018-08-16T09:04:46.009Z,16.37
2018-08-16T09:07:15.396Z,14.40
2018-08-16T09:11:04.568Z,15.65
2018-08-16T09:13:44.500Z,13.53
2018-08-16T09:16:15.605Z,14.90
2018-08-16T09:18:43.652Z,12.70
2018-08-16T09:21:12.326Z,13.13
2018-08-16T09:23:40.355Z,11.60
2018-08-16T09:26:13.750Z,11.55
2018-08-16T09:28:41.961Z,10.63
2018-08-16T09:31:22.291Z,11.70
2018-08-16T09:34:01.717Z,10.60
2018-08-16T09:36:29.747Z,10.03
2018-08-16T09:38:58.295Z,9.68
2018-08-16T09:41:26.575Z,10.13
2018-08-16T09:43:54.592Z,11.22
2018-08-16T09:47:05.462Z,10.05
2018-08-16T09:49:35.432Z,9.18
2018-08-16T09:52:03.982Z,11.10
2018-08-16T09:54:31.996Z,9.28
2018-08-16T09:57:01.195Z,8.48
2018-08-16T09:59:29.236Z,7.83
2018-08-16T10:01:57.317Z,7.85
2018-08-16T10:04:25.348Z,8.30
2018-08-16T10:06:53.342Z,8.15
2018-08-16T10:09:24.507Z,8.65
2018-08-16T10:11:52.881Z,8.43
2018-08-16T10:14:21.377Z,7.80
2018-08-16T10:16:49.556Z,7.45
2018-08-16T10:19:17.712Z,10.78
2018-08-16T10:21:45.764Z,8.95
2018-08-16T10:24:13.924Z,9.40
2018-08-16T10:26:42.120Z,7.30
2018-08-16T10:29:10.785Z,7.40
2018-08-16T10:31:38.812Z,6.90
2018-08-16T10:34:06.869Z,6.70
2018-08-16T10:36:34.920Z,6.85
2018-08-16T10:39:03.273Z,7.10
2018-08-16T10:41:31.292Z,6.87
2018-08-16T10:43:59.314Z,6.40
2018-08-16T10:46:27.343Z,6.00
2018-08-16T10:48:55.456Z,6.92
2018-08-16T10:51:23.452Z,7.00
2018-08-16T10:53:51.464Z,6.15
2018-08-16T10:56:19.512Z,6.30
2018-08-16T10:58:47.548Z,6.15
2018-08-16T11:01:15.646Z,6.12
2018-08-16T11:03:43.625Z,6.70
2018-08-16T11:06:11.621Z,8.43
2018-08-16T11:08:39.637Z,8.00
2018-08-16T11:11:07.900Z,8.20
2018-08-16T11:13:35.933Z,7.40
2018-08-16T11:16:03.989Z,6.20
2018-08-16T11:18:32.061Z,5.90
2018-08-16T11:21:00.086Z,6.50
2018-08-16T11:23:28.104Z,6.87
2018-08-16T11:25:56.127Z,7.25
2018-08-16T11:28:24.179Z,6.12
2018-08-16T11:30:52.200Z,7.30
2018-08-16T11:33:20.241Z,6.83
2018-08-16T11:35:48.245Z,6.62
2018-08-16T11:38:16.248Z,6.15
2018-08-16T11:40:44.305Z,6.60
2018-08-16T11:43:12.394Z,5.70
2018-08-16T11:45:40.395Z,6.40
2018-08-16T11:48:08.420Z,7.80
2018-08-16T11:50:36.469Z,8.38
2018-08-16T11:53:04.508Z,6.78
2018-08-16T11:55:32.515Z,6.40
2018-08-16T11:58:00.521Z,8.03
2018-08-16T12:00:28.557Z,8.00
2018-08-16T12:02:56.560Z,7.47
2018-08-16T12:05:24.753Z,6.50
2018-08-16T12:07:52.780Z,7.28
2018-08-16T12:10:20.845Z,7.20
2018-08-16T12:12:48.858Z,7.12
2018-08-16T12:15:16.968Z,6.97
2018-08-16T12:17:44.915Z,7.12
2018-08-16T12:20:12.968Z,6.60
2018-08-16T12:22:40.984Z,5.80
2018-08-16T12:25:09.212Z,6.70
2018-08-16T12:27:37.321Z,6.25
2018-08-16T12:30:06.536Z,6.90
2018-08-16T12:32:34.584Z,7.00
2018-08-16T12:35:02.632Z,6.90
2018-08-16T12:37:30.652Z,7.10
2018-08-16T12:39:58.700Z,6.53
2018-08-16T12:42:26.729Z,5.83
2018-08-16T12:44:54.781Z,6.17
2018-08-16T12:47:22.812Z,6.60
2018-08-16T12:49:50.833Z,7.00
2018-08-16T12:52:18.880Z,6.90
2018-08-16T12:54:46.927Z,7.12
2018-08-16T12:57:14.985Z,6.30
2018-08-16T12:59:43.008Z,7.78
2018-08-16T13:02:11.170Z,6.20
2018-08-16T13:04:39.199Z,6.80
2018-08-16T13:07:07.234Z,6.87
2018-08-16T13:09:35.279Z,9.15
2018-08-16T13:12:03.323Z,7.35
2018-08-16T13:14:31.333Z,6.40
2018-08-16T13:16:59.409Z,7.72
2018-08-16T13:19:27.418Z,6.20
2018-08-16T13:21:55.463Z,5.70
2018-08-16T13:24:23.492Z,5.80
2018-08-16T13:26:51.553Z,7.85
2018-08-16T13:29:19.576Z,6.60
2018-08-16T13:31:47.603Z,4.90
2018-08-16T13:34:15.681Z,5.25
2018-08-16T13:36:43.700Z,5.70
2018-08-16T13:39:13.080Z,5.90
2018-08-16T13:41:41.147Z,5.60
2018-08-16T13:44:09.620Z,5.35
2018-08-16T13:46:37.669Z,5.50
2018-08-16T13:49:06.299Z,5.37
2018-08-16T13:51:34.312Z,6.00
2018-08-16T13:54:02.344Z,4.80
2018-08-16T13:56:30.401Z,5.00
2018-08-16T13:58:58.440Z,4.90
2018-08-16T14:01:26.452Z,5.50
2018-08-16T14:03:54.524Z,5.60
2018-08-16T14:06:22.608Z,5.43
2018-08-16T14:08:50.648Z,5.40
2018-08-16T14:11:18.685Z,5.00
2018-08-16T14:13:46.716Z,4.90
2018-08-16T14:16:14.743Z,5.33
2018-08-16T14:18:42.795Z,5.67
2018-08-16T14:21:10.812Z,6.30
2018-08-16T14:23:38.939Z,6.80
2018-08-16T14:26:07.096Z,4.90
2018-08-16T14:28:35.036Z,5.05
2018-08-16T14:31:03.121Z,5.27
2018-08-16T14:33:31.153Z,4.67
2018-08-16T14:35:59.194Z,4.50
2018-08-16T14:38:27.292Z,4.72
2018-08-16T14:40:55.324Z,5.95
2018-08-16T14:43:23.364Z,4.80
2018-08-16T14:45:51.478Z,5.00
2018-08-16T14:48:19.520Z,4.65
2018-08-16T14:50:47.561Z,5.85
2018-08-16T14:53:15.606Z,4.58
2018-08-16T14:55:43.639Z,4.60
2018-08-16T14:58:11.667Z,4.93
2018-08-16T15:00:39.704Z,4.72
2018-08-16T15:03:07.735Z,5.10
2018-08-16T15:05:35.775Z,5.00
2018-08-16T15:08:03.780Z,4.78
2018-08-16T15:10:39.715Z,4.80
2018-08-16T15:13:07.798Z,4.78
2018-08-16T15:15:35.828Z,5.12
2018-08-16T15:18:03.865Z,5.20
2018-08-16T15:20:31.904Z,5.60
2018-08-16T15:23:00.014Z,4.70
2018-08-16T15:25:28.164Z,4.70
2018-08-16T15:27:56.201Z,4.72
2018-08-16T15:30:24.222Z,4.90
2018-08-16T15:32:52.733Z,4.57
2018-08-16T15:35:20.818Z,4.77
2018-08-16T15:37:48.989Z,5.17
2018-08-16T15:40:17.016Z,4.75
2018-08-16T15:42:45.063Z,4.90
2018-08-16T15:45:13.079Z,5.00
2018-08-16T15:47:41.167Z,4.70
2018-08-16T15:50:09.164Z,4.77
2018-08-16T15:52:37.189Z,4.58
2018-08-16T15:55:05.852Z,5.40
2018-08-16T15:57:33.881Z,5.10
2018-08-16T16:00:01.994Z,6.35
2018-08-16T16:02:30.260Z,4.60
2018-08-16T16:04:58.268Z,5.15
2018-08-16T16:07:26.284Z,4.50
2018-08-16T16:09:54.287Z,4.33
2018-08-16T16:12:22.301Z,4.30
2018-08-16T16:14:50.380Z,4.80
2018-08-16T16:17:18.492Z,6.60
2018-08-16T16:19:46.496Z,5.00
2018-08-16T16:22:14.528Z,5.15
2018-08-16T16:24:42.572Z,6.10
2018-08-16T16:27:10.617Z,6.10
2018-08-16T16:29:38.640Z,6.90
2018-08-16T16:34:41.659Z,6.60
2018-08-16T16:37:09.728Z,6.30
2018-08-16T16:39:37.727Z,6.65
2018-08-16T16:42:06.540Z,7.10
2018-08-16T16:44:34.604Z,7.03
2018-08-16T16:47:02.625Z,6.70
2018-08-16T16:49:30.652Z,6.60
2018-08-16T16:51:58.697Z,6.50
2018-08-16T16:54:26.751Z,6.83
2018-08-16T16:56:54.800Z,6.87
2018-08-16T16:59:22.824Z,7.40
2018-08-16T17:01:50.964Z,6.85
2018-08-16T17:04:19.552Z,7.40
2018-08-16T17:06:47.567Z,7.40
2018-08-16T17:09:15.616Z,7.10
2018-08-16T17:11:43.648Z,7.20
2018-08-16T17:14:11.692Z,6.97
2018-08-16T17:16:39.824Z,7.03
2018-08-16T17:19:07.870Z,6.90
2018-08-16T17:21:35.897Z,7.70
2018-08-16T17:24:03.924Z,8.00
2018-08-16T17:26:31.964Z,7.77
2018-08-16T17:28:59.975Z,7.70
2018-08-16T17:31:28.013Z,7.90
2018-08-16T17:33:56.059Z,8.08
2018-08-16T17:36:24.087Z,8.10
2018-08-16T17:38:52.105Z,8.13
2018-08-16T17:41:20.179Z,8.28
2018-08-16T17:43:48.200Z,9.38
2018-08-16T17:46:16.233Z,9.60
2018-08-16T17:48:44.269Z,10.75
2018-08-16T17:51:12.479Z,11.60
2018-08-16T17:53:40.661Z,11.30
2018-08-16T17:56:08.897Z,11.80
2018-08-16T17:58:36.939Z,12.18
2018-08-16T18:01:04.976Z,10.80
2018-08-16T18:03:32.981Z,11.93
2018-08-16T18:06:01.006Z,11.60
2018-08-16T18:08:29.040Z,13.00
2018-08-16T18:10:57.071Z,12.80
2018-08-16T18:13:25.103Z,13.20
2018-08-16T18:15:53.124Z,12.85
2018-08-16T18:18:21.179Z,12.50
2018-08-16T18:20:49.355Z,13.10
2018-08-16T18:23:17.412Z,12.68
2018-08-16T18:25:45.476Z,13.18
2018-08-16T18:28:13.524Z,13.08
2018-08-16T18:30:41.593Z,14.33
2018-08-16T18:33:09.720Z,14.58
2018-08-16T18:35:37.776Z,14.05
2018-08-16T18:38:06.077Z,13.90
2018-08-16T18:40:34.113Z,13.30
2018-08-16T18:43:02.192Z,14.23
2018-08-16T18:45:30.436Z,14.13
2018-08-16T18:47:58.487Z,14.70
2018-08-16T18:50:26.531Z,14.63
2018-08-16T18:52:54.555Z,16.07
2018-08-16T18:55:22.648Z,14.87
2018-08-16T18:57:50.723Z,15.30
2018-08-16T19:00:18.775Z,15.35
2018-08-16T19:02:46.809Z,14.90
2018-08-16T19:05:14.878Z,14.68
2018-08-16T19:07:42.883Z,14.95
2018-08-16T19:10:11.155Z,16.05
2018-08-16T19:12:39.338Z,15.30
2018-08-16T19:15:07.443Z,15.63
2018-08-16T19:17:35.484Z,15.60
2018-08-16T19:20:03.652Z,16.30
2018-08-16T19:22:32.332Z,16.48
2018-08-16T19:25:00.379Z,15.85
2018-08-16T19:27:28.447Z,16.87
2018-08-16T19:29:56.536Z,17.12
2018-08-16T19:32:24.506Z,17.05
2018-08-16T19:34:52.644Z,16.50
2018-08-16T19:37:20.668Z,16.75
2018-08-16T19:39:48.843Z,15.90
2018-08-16T19:42:16.960Z,17.50
2018-08-16T19:44:45.100Z,17.53
2018-08-16T19:47:13.449Z,16.85
2018-08-16T19:49:41.487Z,16.97
2018-08-16T19:52:09.525Z,16.80
2018-08-16T19:54:37.631Z,16.55
2018-08-16T19:57:06.172Z,16.02
2018-08-16T19:59:34.214Z,16.63
2018-08-16T20:02:02.255Z,17.10
2018-08-16T20:04:30.300Z,15.83
2018-08-16T20:06:58.368Z,17.20
2018-08-16T20:09:26.388Z,17.23
2018-08-16T20:11:54.435Z,16.70
2018-08-16T20:14:22.496Z,15.90
2018-08-16T20:16:50.519Z,16.50
2018-08-16T20:19:18.579Z,15.70
2018-08-16T20:21:46.572Z,15.43
2018-08-16T20:24:14.640Z,15.88
2018-08-16T20:26:42.643Z,15.90
2018-08-16T20:29:10.668Z,15.00
2018-08-16T20:31:38.707Z,14.15
2018-08-16T20:34:06.752Z,15.13
2018-08-16T20:36:34.786Z,14.78
2018-08-16T20:39:02.848Z,14.10
2018-08-16T20:41:30.900Z,14.63
2018-08-16T20:43:58.943Z,14.40
2018-08-16T20:46:26.999Z,13.38
2018-08-16T20:48:55.072Z,13.53
2018-08-16T20:51:23.108Z,14.20
2018-08-16T20:53:51.157Z,13.10
2018-08-16T20:56:19.227Z,14.20
2018-08-16T20:58:47.278Z,13.30
2018-08-16T21:01:15.317Z,13.20
2018-08-16T21:03:43.562Z,13.70
2018-08-16T21:06:11.615Z,13.08
2018-08-16T21:08:39.683Z,13.70
2018-08-16T21:11:07.779Z,12.88
2018-08-16T21:13:36.608Z,13.38
2018-08-16T21:16:04.741Z,14.25
2018-08-16T21:18:32.760Z,13.15
2018-08-16T21:21:00.784Z,12.80
2018-08-16T21:23:28.814Z,13.70
2018-08-16T21:25:56.849Z,12.90
2018-08-16T21:28:24.879Z,13.05
2018-08-16T21:30:52.912Z,12.23
2018-08-16T21:33:20.964Z,12.37
2018-08-16T21:35:49.027Z,12.85
2018-08-16T21:38:17.088Z,12.25
2018-08-16T21:40:45.114Z,12.25
2018-08-16T21:43:13.144Z,13.38
2018-08-16T21:45:41.176Z,12.75
2018-08-16T21:48:09.190Z,12.60
2018-08-16T21:50:37.281Z,13.38
2018-08-16T21:53:05.312Z,12.18
2018-08-16T21:55:33.340Z,12.80
2018-08-16T21:58:01.408Z,12.85
2018-08-16T22:00:47.324Z,13.60
2018-08-16T22:03:16.624Z,13.70
2018-08-16T22:05:55.297Z,13.00
2018-08-16T22:08:23.568Z,14.28
2018-08-16T22:10:51.596Z,13.77
2018-08-16T22:13:19.663Z,15.07
2018-08-16T22:15:47.691Z,14.50
2018-08-16T22:18:15.724Z,14.70
2018-08-16T22:20:43.779Z,14.65
2018-08-16T22:23:11.833Z,14.80
2018-08-16T22:25:40.458Z,15.18
2018-08-16T22:28:08.495Z,15.60
2018-08-16T22:30:36.545Z,15.65
2018-08-16T22:33:04.632Z,15.18
2018-08-16T22:35:32.660Z,17.45
2018-08-16T22:38:00.810Z,16.20
2018-08-16T22:40:29.103Z,16.90
2018-08-16T22:42:57.145Z,16.65
2018-08-16T22:45:25.175Z,17.32
2018-08-16T22:47:53.223Z,16.90
2018-08-16T22:50:21.268Z,17.92
2018-08-16T22:52:49.283Z,18.10
2018-08-16T22:55:17.315Z,33.20
2018-08-16T22:57:45.339Z,17.80
2018-08-16T23:00:13.376Z,18.65
2018-08-16T23:02:42.159Z,20.02
2018-08-16T23:05:10.351Z,19.37
2018-08-16T23:07:38.516Z,18.10
2018-08-16T23:10:06.751Z,18.90
2018-08-16T23:12:34.789Z,19.10
2018-08-16T23:15:02.835Z,19.37
2018-08-16T23:17:30.876Z,20.62
2018-08-16T23:19:58.891Z,19.82
2018-08-16T23:22:26.931Z,20.35
2018-08-16T23:24:54.988Z,20.27
2018-08-16T23:27:23.020Z,21.10
2018-08-16T23:29:51.036Z,21.15
2018-08-16T23:32:19.076Z,20.53
2018-08-16T23:34:47.092Z,20.43
2018-08-16T23:37:15.144Z,20.97
2018-08-16T23:39:43.207Z,20.57
2018-08-16T23:42:11.224Z,21.10
2018-08-16T23:44:39.257Z,21.40
2018-08-16T23:47:07.360Z,21.05
2018-08-16T23:49:35.371Z,22.35
2018-08-16T23:52:03.709Z,20.77
2018-08-16T23:54:31.723Z,21.23
2018-08-16T23:56:59.756Z,22.90
2018-08-16T23:59:27.800Z,22.15
